Time;durP1;ratioP1;P1;durP2;ratioP2;P2;SDS_P1;SDS_P2;PMS_P1;PMS_P2;Temp;Humidity;BMP_temperature;BMP_pressure;BME280_temperature;BME280_humidity;BME280_pressure;Samples;Min_cycle;Max_cycle;Signal;HPM_P1;HPM_P2
2022/12/01 00:01:17;;;;;;;45.13;18.77;;;;;;;;;;6146355;23;20331;-89
2022/12/01 00:03:43;;;;;;;35.80;18.45;;;;;;;;;;6150514;23;20252;-89
2022/12/01 00:06:10;;;;;;;37.60;19.77;;;;;;;;;;6154136;23;20261;-89
2022/12/01 00:08:39;;;;;;;42.22;20.85;;;;;;;;;;6150517;23;20161;-90
2022/12/01 00:11:11;;;;;;;42.53;24.02;;;;;;;;;;6156703;23;20160;-90
2022/12/01 00:13:37;;;;;;;44.50;22.77;;;;;;;;;;6152934;23;20175;-90
2022/12/01 00:16:14;;;;;;;38.67;19.92;;;;;;;;;;6154037;23;20164;-89
2022/12/01 00:18:46;;;;;;;36.85;18.83;;;;;;;;;;6153641;23;20160;-90
2022/12/01 00:21:16;;;;;;;37.42;17.65;;;;;;;;;;6158414;23;20169;-90
2022/12/01 00:23:43;;;;;;;39.42;19.50;;;;;;;;;;6155101;23;20152;-90
2022/12/01 00:26:09;;;;;;;38.97;22.48;;;;;;;;;;6156718;23;20423;-88
2022/12/01 00:31:39;;;;;;;46.25;20.58;;;;;;;;;;6163071;23;20183;-90
2022/12/01 00:34:05;;;;;;;41.47;20.20;;;;;;;;;;6175111;23;20149;-90
2022/12/01 00:36:31;;;;;;;44.83;20.17;;;;;;;;;;6179474;23;20152;-90
2022/12/01 00:38:57;;;;;;;39.40;21.42;;;;;;;;;;6173734;23;20195;-90
2022/12/01 00:41:26;;;;;;;42.72;20.65;;;;;;;;;;6167060;23;20779;-89
2022/12/01 00:43:55;;;;;;;43.65;23.30;;;;;;;;;;6156389;23;20223;-90
2022/12/01 00:46:21;;;;;;;51.72;19.48;;;;;;;;;;6156409;23;20224;-90
2022/12/01 00:48:54;;;;;;;43.08;21.67;;;;;;;;;;6151756;23;20159;-89
2022/12/01 00:51:21;;;;;;;42.65;22.05;;;;;;;;;;6153589;23;20164;-88
2022/12/01 00:53:47;;;;;;;45.58;21.48;;;;;;;;;;6150312;23;20153;-90
2022/12/01 00:56:15;;;;;;;45.83;22.00;;;;;;;;;;6150139;23;20161;-90
2022/12/01 00:58:41;;;;;;;50.50;20.70;;;;;;;;;;6148850;23;20594;-89
2022/12/01 01:01:07;;;;;;;46.60;21.20;;;;;;;;;;6149704;23;20192;-90
2022/12/01 01:03:33;;;;;;;48.25;20.35;;;;;;;;;;6158660;23;20156;-90
2022/12/01 01:06:07;;;;;;;52.13;22.73;;;;;;;;;;6154583;23;20164;-89
2022/12/01 01:08:34;;;;;;;48.75;22.38;;;;;;;;;;6165025;23;20153;-89
2022/12/01 01:11:03;;;;;;;48.55;22.13;;;;;;;;;;6151146;23;20215;-90
2022/12/01 01:13:29;;;;;;;44.72;21.45;;;;;;;;;;6152222;23;20164;-90
2022/12/01 01:16:02;;;;;;;52.65;21.90;;;;;;;;;;6150274;23;20160;-90
2022/12/01 01:18:29;;;;;;;48.90;23.13;;;;;;;;;;6159970;23;20157;-90
2022/12/01 01:20:58;;;;;;;47.70;22.63;;;;;;;;;;6157833;23;20196;-90
2022/12/01 01:23:27;;;;;;;54.83;23.52;;;;;;;;;;6178996;23;20148;-91
2022/12/01 01:25:53;;;;;;;53.95;22.60;;;;;;;;;;6175126;23;20167;-90
2022/12/01 01:28:19;;;;;;;54.03;23.20;;;;;;;;;;6168482;23;20164;-91
2022/12/01 01:30:46;;;;;;;51.53;23.55;;;;;;;;;;6152563;23;20169;-88
2022/12/01 01:33:12;;;;;;;51.33;23.33;;;;;;;;;;6154142;23;20460;-91
2022/12/01 01:35:38;;;;;;;61.80;24.27;;;;;;;;;;6153148;23;20153;-88
2022/12/01 01:38:04;;;;;;;52.72;23.02;;;;;;;;;;6153367;23;20404;-88
2022/12/01 01:40:30;;;;;;;63.00;27.00;;;;;;;;;;6150243;23;20483;-88
2022/12/01 01:42:58;;;;;;;57.97;23.38;;;;;;;;;;6147178;23;20398;-89
2022/12/01 01:45:28;;;;;;;80.60;27.15;;;;;;;;;;6155849;23;20484;-88
2022/12/01 01:47:55;;;;;;;54.67;24.17;;;;;;;;;;6154719;23;20160;-89
2022/12/01 01:50:27;;;;;;;46.80;22.75;;;;;;;;;;6157079;23;20191;-89
2022/12/01 01:53:02;;;;;;;50.47;23.70;;;;;;;;;;6156007;23;20220;-89
2022/12/01 01:55:29;;;;;;;63.67;25.38;;;;;;;;;;6165399;23;20136;-91
2022/12/01 01:57:55;;;;;;;53.03;22.65;;;;;;;;;;6178745;23;20180;-87
2022/12/01 02:00:22;;;;;;;65.97;24.42;;;;;;;;;;6169907;23;20621;-91
2022/12/01 02:02:48;;;;;;;68.50;24.40;;;;;;;;;;6171809;23;20145;-89
2022/12/01 02:05:24;;;;;;;66.18;26.30;;;;;;;;;;6166377;23;20462;-88
2022/12/01 02:07:51;;;;;;;71.43;28.25;;;;;;;;;;6160823;23;20183;-89
2022/12/01 02:10:21;;;;;;;63.53;26.98;;;;;;;;;;6152476;23;20160;-90
2022/12/01 02:13:02;;;;;;;66.53;26.63;;;;;;;;;;6154582;23;20235;-90
2022/12/01 02:15:34;;;;;;;71.15;26.58;;;;;;;;;;6151185;23;20157;-90
2022/12/01 02:18:00;;;;;;;66.93;26.15;;;;;;;;;;6153293;23;20165;-91
2022/12/01 02:20:39;;;;;;;70.97;26.23;;;;;;;;;;6150458;23;20180;-90
2022/12/01 02:23:21;;;;;;;65.65;27.08;;;;;;;;;;6152164;23;20871;-90
2022/12/01 02:26:01;;;;;;;72.15;26.00;;;;;;;;;;6151198;23;20152;-91
2022/12/01 02:28:38;;;;;;;60.13;22.65;;;;;;;;;;6152794;23;20167;-89
2022/12/01 02:31:11;;;;;;;61.20;23.58;;;;;;;;;;6151742;23;20660;-89
2022/12/01 02:33:41;;;;;;;59.85;25.17;;;;;;;;;;6150944;23;20195;-90
2022/12/01 02:36:22;;;;;;;56.78;21.88;;;;;;;;;;6154279;23;20133;-90
2022/12/01 02:38:54;;;;;;;64.60;25.88;;;;;;;;;;6148713;23;20156;-90
2022/12/01 02:41:25;;;;;;;57.90;22.38;;;;;;;;;;6151194;23;20180;-90
2022/12/01 02:44:07;;;;;;;58.08;25.38;;;;;;;;;;6164489;23;20565;-92
2022/12/01 02:46:36;;;;;;;58.70;23.73;;;;;;;;;;6161846;23;20157;-91
2022/12/01 02:49:07;;;;;;;70.30;23.90;;;;;;;;;;6159135;23;20156;-90
2022/12/01 02:51:35;;;;;;;80.93;28.67;;;;;;;;;;6156564;23;20149;-90
2022/12/01 02:54:03;;;;;;;67.20;27.77;;;;;;;;;;6148945;23;20164;-91
2022/12/01 02:56:31;;;;;;;63.78;25.25;;;;;;;;;;6152969;23;20175;-90
2022/12/01 02:58:57;;;;;;;69.15;29.98;;;;;;;;;;6152485;23;20184;-90
2022/12/01 03:01:36;;;;;;;68.03;28.87;;;;;;;;;;6152804;23;20200;-90
2022/12/01 03:04:02;;;;;;;68.57;28.05;;;;;;;;;;6157295;23;20400;-90
2022/12/01 03:06:43;;;;;;;89.37;27.73;;;;;;;;;;6156935;23;20149;-90
2022/12/01 03:09:09;;;;;;;69.78;27.80;;;;;;;;;;6151183;23;20948;-91
2022/12/01 03:11:43;;;;;;;76.50;29.80;;;;;;;;;;6153493;23;20156;-91
2022/12/01 03:14:32;;;;;;;79.63;28.60;;;;;;;;;;6153104;23;20403;-91
2022/12/01 03:16:59;;;;;;;60.85;26.13;;;;;;;;;;6154846;23;20375;-91
2022/12/01 03:19:35;;;;;;;50.65;22.85;;;;;;;;;;6151148;23;20160;-90
2022/12/01 03:22:21;;;;;;;52.15;24.60;;;;;;;;;;6156111;23;20174;-90
2022/12/01 03:24:48;;;;;;;60.38;24.05;;;;;;;;;;6152161;23;20152;-91
2022/12/01 03:27:15;;;;;;;51.23;23.37;;;;;;;;;;6156450;23;20191;-91
2022/12/01 03:29:47;;;;;;;53.75;23.15;;;;;;;;;;6162519;23;20372;-90
2022/12/01 03:32:15;;;;;;;50.22;21.35;;;;;;;;;;6180846;23;20183;-90
2022/12/01 03:34:44;;;;;;;53.65;22.90;;;;;;;;;;6175398;23;20152;-91
2022/12/01 03:37:16;;;;;;;56.35;22.67;;;;;;;;;;6175952;23;20339;-90
2022/12/01 03:39:43;;;;;;;38.05;20.35;;;;;;;;;;6169554;23;20236;-91
2022/12/01 03:42:13;;;;;;;43.08;21.25;;;;;;;;;;6155544;23;20617;-91
2022/12/01 03:44:43;;;;;;;45.47;20.00;;;;;;;;;;6153394;23;20144;-89
2022/12/01 03:47:12;;;;;;;42.35;22.00;;;;;;;;;;6153002;23;20507;-91
2022/12/01 03:49:39;;;;;;;48.65;22.48;;;;;;;;;;6154823;23;20220;-92
2022/12/01 03:52:27;;;;;;;46.65;22.40;;;;;;;;;;6153723;23;20164;-91
2022/12/01 03:55:25;;;;;;;50.15;22.60;;;;;;;;;;6153599;23;20180;-92
2022/12/01 03:58:00;;;;;;;45.13;22.33;;;;;;;;;;6072129;23;20211;-91
2022/12/01 04:00:27;;;;;;;42.53;21.30;;;;;;;;;;6145346;23;20231;-93
2022/12/01 04:02:55;;;;;;;43.90;21.63;;;;;;;;;;6153528;23;20140;-91
2022/12/01 04:05:21;;;;;;;43.17;18.70;;;;;;;;;;6151138;23;20439;-90
2022/12/01 04:07:47;;;;;;;39.97;21.25;;;;;;;;;;6152826;23;20251;-90
2022/12/01 04:10:13;;;;;;;41.67;19.30;;;;;;;;;;6152448;23;20691;-91
2022/12/01 04:12:40;;;;;;;44.10;21.40;;;;;;;;;;6150968;23;20422;-91
2022/12/01 04:15:09;;;;;;;50.30;21.27;;;;;;;;;;6152341;23;20160;-90
2022/12/01 04:17:35;;;;;;;48.90;21.52;;;;;;;;;;6150559;23;20160;-91
2022/12/01 04:20:05;;;;;;;37.38;18.23;;;;;;;;;;6154576;23;20188;-90
2022/12/01 04:22:31;;;;;;;41.38;19.00;;;;;;;;;;6160241;23;20160;-91
2022/12/01 04:25:00;;;;;;;34.78;16.98;;;;;;;;;;6165605;23;20273;-90
2022/12/01 04:27:26;;;;;;;36.67;20.05;;;;;;;;;;6168109;23;20257;-91
2022/12/01 04:29:52;;;;;;;41.70;19.00;;;;;;;;;;6167802;23;20190;-90
2022/12/01 04:32:18;;;;;;;32.47;17.53;;;;;;;;;;6150240;23;20428;-91
2022/12/01 04:34:44;;;;;;;33.03;18.30;;;;;;;;;;6153075;23;20388;-91
2022/12/01 04:37:10;;;;;;;33.30;18.90;;;;;;;;;;6154337;23;20179;-90
2022/12/01 04:39:37;;;;;;;37.22;18.02;;;;;;;;;;6152295;23;20167;-90
2022/12/01 04:42:03;;;;;;;39.83;19.10;;;;;;;;;;6146732;23;20177;-92
2022/12/01 04:44:29;;;;;;;37.97;20.20;;;;;;;;;;6151604;23;20647;-91
2022/12/01 04:46:55;;;;;;;36.97;20.52;;;;;;;;;;6149312;23;20207;-90
2022/12/01 04:49:22;;;;;;;32.70;18.37;;;;;;;;;;6155470;23;20534;-92
2022/12/01 04:51:48;;;;;;;37.10;19.70;;;;;;;;;;6152548;23;20392;-91
2022/12/01 04:54:15;;;;;;;38.20;19.67;;;;;;;;;;6163203;23;20191;-91
2022/12/01 04:56:41;;;;;;;48.00;19.05;;;;;;;;;;6162960;23;20404;-91
2022/12/01 04:59:10;;;;;;;42.47;20.42;;;;;;;;;;6165908;23;20165;-89
2022/12/01 05:01:36;;;;;;;34.83;19.98;;;;;;;;;;6171021;23;20200;-92
2022/12/01 05:04:02;;;;;;;36.13;19.30;;;;;;;;;;6178322;23;20151;-92
2022/12/01 05:06:29;;;;;;;44.22;21.95;;;;;;;;;;6173352;23;20396;-91
2022/12/01 05:08:56;;;;;;;43.50;20.33;;;;;;;;;;6176742;23;20157;-91
2022/12/01 05:11:23;;;;;;;49.38;20.77;;;;;;;;;;6163428;23;20163;-91
2022/12/01 05:13:49;;;;;;;40.22;19.98;;;;;;;;;;6158067;23;20586;-92
2022/12/01 05:16:19;;;;;;;47.55;21.92;;;;;;;;;;6160387;23;20160;-91
2022/12/01 05:18:50;;;;;;;42.35;20.98;;;;;;;;;;6158123;23;20180;-90
2022/12/01 05:21:16;;;;;;;35.30;18.83;;;;;;;;;;6153680;23;20455;-89
2022/12/01 05:23:44;;;;;;;43.35;21.38;;;;;;;;;;6157471;23;20161;-91
2022/12/01 05:26:10;;;;;;;37.72;20.40;;;;;;;;;;6154909;23;20156;-90
2022/12/01 05:28:40;;;;;;;45.42;19.08;;;;;;;;;;6161941;23;20157;-90
2022/12/01 05:31:06;;;;;;;45.13;20.42;;;;;;;;;;6159315;23;20169;-91
2022/12/01 05:33:33;;;;;;;40.93;19.70;;;;;;;;;;6161773;23;20196;-92
2022/12/01 05:35:59;;;;;;;38.58;19.38;;;;;;;;;;6156725;23;20397;-91
2022/12/01 05:38:35;;;;;;;35.33;19.15;;;;;;;;;;6155223;23;20212;-90
2022/12/01 05:41:01;;;;;;;35.47;21.42;;;;;;;;;;6157121;23;20234;-91
2022/12/01 05:43:27;;;;;;;40.53;19.75;;;;;;;;;;6151880;23;20152;-91
2022/12/01 05:45:54;;;;;;;38.22;18.63;;;;;;;;;;6154010;23;20490;-88
2022/12/01 05:48:20;;;;;;;39.03;19.65;;;;;;;;;;6160335;23;20165;-91
2022/12/01 05:50:46;;;;;;;34.30;17.40;;;;;;;;;;6161784;23;20252;-91
2022/12/01 05:53:13;;;;;;;48.40;21.00;;;;;;;;;;6163473;23;20153;-86
2022/12/01 05:55:39;;;;;;;37.13;18.83;;;;;;;;;;6155047;23;20403;-90
2022/12/01 05:58:05;;;;;;;39.58;21.33;;;;;;;;;;6157615;23;20514;-88
2022/12/01 06:00:31;;;;;;;34.63;16.67;;;;;;;;;;6159706;23;20188;-89
2022/12/01 06:02:57;;;;;;;39.60;19.92;;;;;;;;;;6160197;23;20157;-90
2022/12/01 06:05:23;;;;;;;39.87;18.60;;;;;;;;;;6154987;23;20157;-89
2022/12/01 06:07:49;;;;;;;35.28;19.15;;;;;;;;;;6136003;23;20875;-91
2022/12/01 06:10:15;;;;;;;37.35;20.70;;;;;;;;;;6134920;23;20157;-91
2022/12/01 06:12:41;;;;;;;40.22;20.40;;;;;;;;;;6138292;23;20152;-89
2022/12/01 06:15:08;;;;;;;47.20;21.10;;;;;;;;;;6134143;23;20215;-91
2022/12/01 06:17:34;;;;;;;34.97;19.20;;;;;;;;;;6132894;23;20431;-90
2022/12/01 06:20:00;;;;;;;41.60;20.47;;;;;;;;;;6129552;23;20522;-90
2022/12/01 06:22:26;;;;;;;34.67;17.83;;;;;;;;;;6134013;23;20427;-91
2022/12/01 06:24:52;;;;;;;37.30;19.88;;;;;;;;;;6133278;23;20171;-91
2022/12/01 06:27:18;;;;;;;37.20;20.67;;;;;;;;;;6145816;23;20157;-91
2022/12/01 06:29:44;;;;;;;39.25;20.23;;;;;;;;;;6152149;23;20160;-90
2022/12/01 06:32:11;;;;;;;37.00;19.23;;;;;;;;;;6154056;23;20187;-87
2022/12/01 06:34:37;;;;;;;36.83;19.00;;;;;;;;;;6144159;23;20196;-91
2022/12/01 06:37:03;;;;;;;42.87;19.73;;;;;;;;;;6139972;23;20160;-89
2022/12/01 06:39:29;;;;;;;43.38;18.40;;;;;;;;;;6132028;23;21140;-91
2022/12/01 06:41:55;;;;;;;43.63;20.40;;;;;;;;;;6129153;23;20184;-92
2022/12/01 06:44:28;;;;;;;43.17;22.15;;;;;;;;;;6137000;23;20384;-88
2022/12/01 06:46:54;;;;;;;44.30;20.98;;;;;;;;;;6141108;23;20187;-91
2022/12/01 06:49:21;;;;;;;41.85;18.92;;;;;;;;;;6135562;23;20199;-88
2022/12/01 06:51:50;;;;;;;37.88;20.50;;;;;;;;;;6138925;23;20156;-90
2022/12/01 06:54:41;;;;;;;41.40;21.83;;;;;;;;;;6162359;23;20176;-91
2022/12/01 06:57:14;;;;;;;45.80;22.20;;;;;;;;;;6160360;23;20140;-91
2022/12/01 07:02:32;;;;;;;39.50;21.00;;;;;;;;;;6157442;23;20175;-92
2022/12/01 07:05:01;;;;;;;41.75;21.48;;;;;;;;;;6149288;23;20175;-92
2022/12/01 07:07:48;;;;;;;34.72;19.88;;;;;;;;;;6143543;23;20167;-91
2022/12/01 07:11:06;;;;;;;52.00;22.70;;;;;;;;;;6142832;23;20149;-91
2022/12/01 07:13:25;;;;;;;45.20;21.85;;;;;;;;;;6166548;23;20168;-91
2022/12/01 07:15:54;;;;;;;50.17;22.98;;;;;;;;;;6145333;23;20164;-90
2022/12/01 07:18:36;;;;;;;46.28;22.70;;;;;;;;;;6170785;23;20184;-91
2022/12/01 07:21:31;;;;;;;47.05;23.25;;;;;;;;;;6170811;23;20425;-92
2022/12/01 07:24:24;;;;;;;44.60;22.30;;;;;;;;;;6143458;23;20171;-91
2022/12/01 07:27:00;;;;;;;56.88;23.33;;;;;;;;;;6167897;23;20165;-92
2022/12/01 07:29:26;;;;;;;50.60;26.42;;;;;;;;;;6140295;23;20216;-88
2022/12/01 07:31:55;;;;;;;51.80;20.75;;;;;;;;;;6172778;23;20165;-92
2022/12/01 07:34:32;;;;;;;38.92;21.95;;;;;;;;;;6148665;23;20149;-91
2022/12/01 07:50:00;;;;;;;46.85;21.85;;;;;;;;;;6179662;23;20271;-90
2022/12/01 07:52:26;;;;;;;47.10;21.15;;;;;;;;;;6178568;23;20163;-91
2022/12/01 07:54:54;;;;;;;42.55;22.65;;;;;;;;;;6178271;23;20154;-92
2022/12/01 07:57:25;;;;;;;49.90;21.48;;;;;;;;;;6179705;23;20208;-93
2022/12/01 08:00:19;;;;;;;45.05;20.77;;;;;;;;;;6183415;23;20164;-93
2022/12/01 08:08:10;;;;;;;55.42;23.00;;;;;;;;;;6175940;23;20185;-87
2022/12/01 08:10:37;;;;;;;49.93;24.13;;;;;;;;;;6149691;23;20160;-89
2022/12/01 08:13:05;;;;;;;48.42;24.20;;;;;;;;;;6171817;23;20456;-90
2022/12/01 08:15:31;;;;;;;45.67;23.70;;;;;;;;;;6145748;23;20231;-89
2022/12/01 08:18:01;;;;;;;44.95;22.83;;;;;;;;;;6133584;23;20180;-88
2022/12/01 08:20:27;;;;;;;52.65;24.25;;;;;;;;;;6158318;23;20168;-89
2022/12/01 08:22:58;;;;;;;50.97;24.92;;;;;;;;;;6129875;23;20195;-90
2022/12/01 08:25:27;;;;;;;52.53;24.73;;;;;;;;;;6131821;23;20152;-88
2022/12/01 08:27:53;;;;;;;53.50;23.00;;;;;;;;;;6158085;23;20175;-89
2022/12/01 08:30:19;;;;;;;52.58;22.83;;;;;;;;;;6137211;23;20172;-87
2022/12/01 08:32:46;;;;;;;49.90;21.98;;;;;;;;;;6154975;23;20160;-90
2022/12/01 08:35:14;;;;;;;59.03;26.63;;;;;;;;;;6129938;23;20184;-88
2022/12/01 08:37:40;;;;;;;46.95;22.35;;;;;;;;;;6153327;23;20163;-89
2022/12/01 08:40:06;;;;;;;38.58;23.30;;;;;;;;;;6154767;23;20169;-89
2022/12/01 08:42:32;;;;;;;48.70;25.20;;;;;;;;;;6125316;23;20338;-90
2022/12/01 08:45:00;;;;;;;47.10;22.75;;;;;;;;;;6133352;23;20188;-90
2022/12/01 08:47:28;;;;;;;44.65;22.30;;;;;;;;;;6130430;23;20167;-91
2022/12/01 08:49:54;;;;;;;46.60;23.33;;;;;;;;;;6165158;23;20145;-91
2022/12/01 08:52:23;;;;;;;48.83;22.70;;;;;;;;;;6137638;23;20207;-90
2022/12/01 08:55:07;;;;;;;52.78;24.50;;;;;;;;;;6145881;23;20183;-91
2022/12/01 08:57:46;;;;;;;51.80;23.08;;;;;;;;;;6167332;23;20129;-89
2022/12/01 09:00:13;;;;;;;50.88;25.20;;;;;;;;;;6141892;23;20220;-91
2022/12/01 09:02:39;;;;;;;45.93;22.80;;;;;;;;;;6131520;23;20164;-90
2022/12/01 09:05:05;;;;;;;42.20;21.45;;;;;;;;;;6132003;23;20388;-89
2022/12/01 09:07:32;;;;;;;55.40;22.55;;;;;;;;;;6135271;23;20370;-90
2022/12/01 09:09:58;;;;;;;52.85;23.52;;;;;;;;;;6156635;23;20164;-89
2022/12/01 09:12:32;;;;;;;43.13;22.87;;;;;;;;;;6158992;23;20192;-90
2022/12/01 09:15:01;;;;;;;43.45;21.02;;;;;;;;;;6160443;23;20469;-90
2022/12/01 09:17:27;;;;;;;42.38;20.55;;;;;;;;;;6156162;23;20445;-90
2022/12/01 09:19:54;;;;;;;49.50;21.60;;;;;;;;;;6149305;23;20672;-88
2022/12/01 09:22:21;;;;;;;44.85;20.98;;;;;;;;;;6166040;23;20168;-90
2022/12/01 09:24:47;;;;;;;49.85;22.70;;;;;;;;;;6170416;23;20165;-91
2022/12/01 09:27:13;;;;;;;48.42;20.50;;;;;;;;;;6176281;23;20156;-90
2022/12/01 09:29:39;;;;;;;42.97;21.25;;;;;;;;;;6176348;23;20173;-89
2022/12/01 09:32:05;;;;;;;44.67;22.52;;;;;;;;;;6179769;23;20176;-91
2022/12/01 09:34:31;;;;;;;44.67;19.35;;;;;;;;;;6180715;23;20169;-90
2022/12/01 09:36:58;;;;;;;43.55;21.63;;;;;;;;;;6178331;23;20165;-88
2022/12/01 09:39:24;;;;;;;43.65;20.58;;;;;;;;;;6178927;23;20196;-89
2022/12/01 10:03:01;;;;;;;39.67;18.92;;;;;;;;;;6199334;22;20187;-89
2022/12/01 10:16:17;;;;;;;34.65;18.45;;;;;;;;;;6217083;22;20686;-91
2022/12/01 10:18:52;;;;;;;38.08;17.88;;;;;;;;;;6203987;23;20143;-92
2022/12/01 10:21:39;;;;;;;40.50;19.47;;;;;;;;;;6200525;23;20174;-87
2022/12/01 10:24:27;;;;;;;34.63;17.90;;;;;;;;;;6208657;23;20898;-92
2022/12/01 10:27:22;;;;;;;37.73;16.57;;;;;;;;;;6205704;23;20147;-89
2022/12/01 10:29:52;;;;;;;34.92;17.33;;;;;;;;;;6225131;23;20374;-90
2022/12/01 10:32:35;;;;;;;28.60;16.45;;;;;;;;;;6173189;23;20675;-91
2022/12/01 10:37:38;;;;;;;36.55;19.02;;;;;;;;;;6220134;22;20182;-90
2022/12/01 10:40:08;;;;;;;36.15;18.90;;;;;;;;;;6166735;23;20164;-90
2022/12/01 10:42:40;;;;;;;33.65;17.13;;;;;;;;;;6156884;23;20159;-90
2022/12/01 10:45:25;;;;;;;36.05;16.73;;;;;;;;;;6178827;23;20182;-91
2022/12/01 10:48:10;;;;;;;37.83;19.73;;;;;;;;;;6164805;23;20178;-92
2022/12/01 10:50:36;;;;;;;32.42;18.60;;;;;;;;;;6169474;23;20164;-86
2022/12/01 10:53:03;;;;;;;39.65;20.05;;;;;;;;;;6159060;23;20174;-85
2022/12/01 10:56:06;;;;;;;32.60;19.42;;;;;;;;;;6190184;23;20517;-86
2022/12/01 10:58:52;;;;;;;32.10;16.85;;;;;;;;;;6164018;23;20170;-86
2022/12/01 11:01:26;;;;;;;28.30;15.93;;;;;;;;;;6157946;23;20698;-86
2022/12/01 11:03:56;;;;;;;32.77;20.60;;;;;;;;;;6175587;23;20728;-86
2022/12/01 11:06:24;;;;;;;39.35;18.08;;;;;;;;;;6175910;23;20406;-85
2022/12/01 11:08:52;;;;;;;29.30;17.77;;;;;;;;;;6177472;23;20494;-85
2022/12/01 11:11:41;;;;;;;32.58;17.65;;;;;;;;;;6149556;23;20206;-85
2022/12/01 11:14:17;;;;;;;26.40;16.92;;;;;;;;;;6144212;23;20163;-86
2022/12/01 11:16:44;;;;;;;28.50;17.75;;;;;;;;;;6172594;23;20187;-86
2022/12/01 11:19:16;;;;;;;27.13;17.50;;;;;;;;;;6148078;23;20266;-85
2022/12/01 11:21:52;;;;;;;27.85;15.60;;;;;;;;;;6174931;23;21018;-85
2022/12/01 11:24:26;;;;;;;34.90;19.73;;;;;;;;;;6175717;23;20163;-84
2022/12/01 11:26:52;;;;;;;33.33;18.33;;;;;;;;;;6149112;23;20600;-86
2022/12/01 11:29:34;;;;;;;40.55;24.02;;;;;;;;;;6177930;23;20612;-85
2022/12/01 11:32:04;;;;;;;30.77;18.93;;;;;;;;;;6185745;23;20226;-85
2022/12/01 11:34:43;;;;;;;32.77;19.03;;;;;;;;;;6156784;23;20395;-88
2022/12/01 11:37:15;;;;;;;34.63;20.40;;;;;;;;;;6178373;23;20366;-87
2022/12/01 11:39:47;;;;;;;37.72;19.95;;;;;;;;;;6167813;23;20207;-83
2022/12/01 11:42:13;;;;;;;35.47;21.25;;;;;;;;;;6170561;23;20671;-87
2022/12/01 11:44:42;;;;;;;36.57;22.10;;;;;;;;;;6175056;23;20171;-86
2022/12/01 11:47:16;;;;;;;39.05;23.05;;;;;;;;;;6178011;23;20526;-87
2022/12/01 11:49:43;;;;;;;43.88;24.65;;;;;;;;;;6176957;23;20341;-87
2022/12/01 11:52:36;;;;;;;38.90;24.98;;;;;;;;;;6194147;23;20496;-86
2022/12/01 11:55:15;;;;;;;40.72;23.77;;;;;;;;;;6176862;23;20160;-88
2022/12/01 11:57:42;;;;;;;43.35;24.42;;;;;;;;;;6182178;23;20202;-84
2022/12/01 12:00:16;;;;;;;43.20;23.33;;;;;;;;;;6179194;23;20239;-87
2022/12/01 12:02:48;;;;;;;35.45;23.08;;;;;;;;;;6178648;23;20380;-85
2022/12/01 12:05:17;;;;;;;43.88;25.55;;;;;;;;;;6175678;23;20816;-86
2022/12/01 12:08:04;;;;;;;44.27;24.80;;;;;;;;;;6178488;23;20156;-85
2022/12/01 12:10:33;;;;;;;46.03;24.13;;;;;;;;;;6175041;23;20367;-87
2022/12/01 12:12:59;;;;;;;45.73;24.57;;;;;;;;;;6178577;23;20152;-86
2022/12/01 12:15:52;;;;;;;45.20;26.50;;;;;;;;;;6173849;23;20414;-87
2022/12/01 12:18:27;;;;;;;43.30;25.33;;;;;;;;;;6194019;23;20382;-88
2022/12/01 12:21:17;;;;;;;48.65;28.63;;;;;;;;;;6192591;23;20181;-91
2022/12/01 12:23:52;;;;;;;44.90;26.45;;;;;;;;;;6202526;23;20219;-90
2022/12/01 12:37:09;;;;;;;47.42;27.88;;;;;;;;;;6200082;22;20461;-88
2022/12/01 12:39:35;;;;;;;52.73;26.80;;;;;;;;;;6168691;23;20262;-89
2022/12/01 12:42:06;;;;;;;52.20;27.57;;;;;;;;;;6153766;23;20443;-89
2022/12/01 12:44:33;;;;;;;48.00;29.25;;;;;;;;;;6155839;23;20395;-87
2022/12/01 12:47:19;;;;;;;55.92;28.98;;;;;;;;;;6150731;23;20164;-88
2022/12/01 12:49:54;;;;;;;47.03;25.65;;;;;;;;;;6180292;23;20242;-86
2022/12/01 12:52:28;;;;;;;47.13;28.35;;;;;;;;;;6153266;23;20465;-86
2022/12/01 12:54:57;;;;;;;48.95;28.27;;;;;;;;;;6181641;23;20140;-85
2022/12/01 12:57:29;;;;;;;61.07;28.63;;;;;;;;;;6182905;23;20235;-84
2022/12/01 13:00:16;;;;;;;59.63;29.85;;;;;;;;;;6152444;23;20437;-85
2022/12/01 13:02:42;;;;;;;53.03;30.53;;;;;;;;;;6154069;23;20643;-85
2022/12/01 13:05:20;;;;;;;54.77;30.00;;;;;;;;;;6149933;23;20391;-86
2022/12/01 13:07:55;;;;;;;61.45;31.98;;;;;;;;;;6179785;23;20383;-87
2022/12/01 13:10:40;;;;;;;59.92;32.95;;;;;;;;;;6153094;23;20611;-86
2022/12/01 13:13:26;;;;;;;61.60;29.58;;;;;;;;;;6183783;23;20627;-89
2022/12/01 13:15:54;;;;;;;64.47;32.13;;;;;;;;;;6155337;23;20144;-87
2022/12/01 13:18:26;;;;;;;65.40;32.33;;;;;;;;;;6156673;23;20167;-89
2022/12/01 13:20:53;;;;;;;58.70;29.52;;;;;;;;;;6156281;23;21246;-87
2022/12/01 13:23:20;;;;;;;66.40;32.67;;;;;;;;;;6179397;23;20163;-87
2022/12/01 13:25:51;;;;;;;59.70;32.55;;;;;;;;;;6182958;23;20180;-87
2022/12/01 13:28:23;;;;;;;58.87;35.00;;;;;;;;;;6154122;23;20196;-88
2022/12/01 13:31:03;;;;;;;75.43;31.95;;;;;;;;;;6156307;23;20411;-88
2022/12/01 13:33:30;;;;;;;69.13;34.07;;;;;;;;;;6154026;23;20163;-87
2022/12/01 13:35:57;;;;;;;69.90;32.30;;;;;;;;;;6150055;23;20750;-88
2022/12/01 13:38:23;;;;;;;64.87;33.70;;;;;;;;;;6150371;23;20368;-88
2022/12/01 13:41:09;;;;;;;57.22;30.20;;;;;;;;;;6149844;23;20530;-84
2022/12/01 13:43:46;;;;;;;56.67;30.52;;;;;;;;;;6148572;23;20172;-86
2022/12/01 13:46:23;;;;;;;56.33;30.50;;;;;;;;;;6153354;23;20236;-87
2022/12/01 13:48:51;;;;;;;63.88;33.17;;;;;;;;;;6147559;23;20503;-86
2022/12/01 13:51:17;;;;;;;65.60;35.27;;;;;;;;;;6152124;23;20535;-86
2022/12/01 13:53:56;;;;;;;62.83;33.83;;;;;;;;;;6151768;23;20391;-84
2022/12/01 13:56:26;;;;;;;56.17;31.00;;;;;;;;;;6153060;23;20156;-86
2022/12/01 13:58:54;;;;;;;65.00;32.65;;;;;;;;;;6146236;23;20380;-86
2022/12/01 14:01:20;;;;;;;47.60;25.20;;;;;;;;;;6150279;23;20177;-88
2022/12/01 14:04:05;;;;;;;65.03;35.22;;;;;;;;;;6149224;23;20406;-85
2022/12/01 14:06:31;;;;;;;58.07;29.03;;;;;;;;;;6150948;23;20449;-86
2022/12/01 14:09:05;;;;;;;58.17;30.37;;;;;;;;;;6149595;23;20862;-87
2022/12/01 14:11:34;;;;;;;62.90;32.05;;;;;;;;;;6154125;23;20808;-87
2022/12/01 14:14:10;;;;;;;60.00;32.17;;;;;;;;;;6148155;23;20589;-86
2022/12/01 14:16:53;;;;;;;58.95;30.88;;;;;;;;;;6150753;23;20156;-86
2022/12/01 14:19:42;;;;;;;59.08;32.70;;;;;;;;;;6152308;23;20163;-85
2022/12/01 14:22:28;;;;;;;60.03;32.22;;;;;;;;;;6147758;23;20191;-88
2022/12/01 14:24:58;;;;;;;57.50;34.30;;;;;;;;;;6166535;23;20152;-84
2022/12/01 14:27:37;;;;;;;57.60;32.33;;;;;;;;;;6165279;23;20380;-86
2022/12/01 14:30:26;;;;;;;63.10;32.88;;;;;;;;;;6163945;23;20655;-87
2022/12/01 14:33:22;;;;;;;63.28;32.35;;;;;;;;;;6144432;23;20523;-88
2022/12/01 14:35:53;;;;;;;55.75;32.80;;;;;;;;;;6119305;23;20720;-88
2022/12/01 14:38:28;;;;;;;51.83;31.08;;;;;;;;;;6149639;23;20153;-86
2022/12/01 14:41:02;;;;;;;68.35;30.15;;;;;;;;;;6118277;23;20188;-89
2022/12/01 14:46:16;;;;;;;64.20;34.57;;;;;;;;;;6146940;23;20171;-88
2022/12/01 14:48:44;;;;;;;53.25;30.35;;;;;;;;;;6150481;23;20919;-84
2022/12/01 14:51:30;;;;;;;61.40;32.83;;;;;;;;;;6134585;23;20239;-91
2022/12/01 14:54:01;;;;;;;54.30;30.88;;;;;;;;;;6145428;23;20160;-90
2022/12/01 14:56:43;;;;;;;62.92;33.55;;;;;;;;;;6140481;23;20216;-92
2022/12/01 14:59:21;;;;;;;56.90;29.57;;;;;;;;;;6141731;23;20159;-91
2022/12/01 15:01:51;;;;;;;55.85;29.48;;;;;;;;;;6142237;23;20479;-91
2022/12/01 15:04:30;;;;;;;;;;;;;;;;;;;;;
2022/12/01 15:06:57;;;;;;;60.17;31.45;;;;;;;;;;6168510;23;20141;-90
2022/12/01 15:09:23;;;;;;;74.53;35.95;;;;;;;;;;6137186;23;20648;-90
2022/12/01 15:12:06;;;;;;;64.05;32.17;;;;;;;;;;6131399;23;20211;-91
2022/12/01 15:14:36;;;;;;;52.72;31.17;;;;;;;;;;6131429;23;20248;-89
2022/12/01 15:17:07;;;;;;;57.72;30.60;;;;;;;;;;6169090;23;20141;-89
2022/12/01 15:19:38;;;;;;;57.10;30.30;;;;;;;;;;6174129;23;20125;-92
2022/12/01 15:22:15;;;;;;;66.85;32.97;;;;;;;;;;6149685;23;20211;-90
2022/12/01 15:24:41;;;;;;;52.95;31.80;;;;;;;;;;6148981;23;20171;-89
2022/12/01 15:27:26;;;;;;;56.22;31.33;;;;;;;;;;6147080;23;20152;-93
2022/12/01 15:29:52;;;;;;;53.60;27.17;;;;;;;;;;6141320;23;20152;-92
2022/12/01 15:35:04;;;;;;;59.90;30.75;;;;;;;;;;6189689;22;20195;-93
2022/12/01 15:37:51;;;;;;;56.75;29.25;;;;;;;;;;6173153;23;20243;-93
2022/12/01 15:40:50;;;;;;;66.97;31.70;;;;;;;;;;6154718;23;20171;-94
2022/12/01 15:46:49;;;;;;;55.72;29.92;;;;;;;;;;6185977;23;20410;-91
2022/12/01 15:53:00;;;;;;;52.33;29.55;;;;;;;;;;6063743;23;20166;-90
2022/12/01 16:01:48;;;;;;;56.63;31.80;;;;;;;;;;6200918;23;20184;-90
2022/12/01 16:04:50;;;;;;;;;;;;;;;;;;;;;
2022/12/01 16:07:37;;;;;;;58.38;30.73;;;;;;;;;;6197177;23;20162;-91
2022/12/01 16:10:03;;;;;;;62.28;33.63;;;;;;;;;;6170767;23;20148;-90
2022/12/01 16:12:35;;;;;;;53.45;31.88;;;;;;;;;;6171684;23;20160;-90